sensor_id;sensor_type;location;lat;lon;timestamp;pressure;altitude;pressure_sealevel;temperature;humidity
72157;BME280;60035;52.122;5.406;2023-07-31T00:00:14;101092.50;;;15.72;100.00
72157;BME280;60035;52.122;5.406;2023-07-31T00:02:41;101095.09;;;15.72;100.00
72157;BME280;60035;52.122;5.406;2023-07-31T00:05:08;101088.88;;;15.76;100.00
72157;BME280;60035;52.122;5.406;2023-07-31T00:07:36;101082.88;;;15.76;100.00
72157;BME280;60035;52.122;5.406;2023-07-31T00:10:02;101086.38;;;15.75;100.00
72157;BME280;60035;52.122;5.406;2023-07-31T00:12:29;101076.66;;;15.80;100.00
72157;BME280;60035;52.122;5.406;2023-07-31T00:14:55;101066.00;;;15.88;100.00
72157;BME280;60035;52.122;5.406;2023-07-31T00:17:22;101063.09;;;15.94;100.00
72157;BME280;60035;52.122;5.406;2023-07-31T00:19:48;101047.47;;;15.97;100.00
72157;BME280;60035;52.122;5.406;2023-07-31T00:22:16;101052.56;;;15.98;100.00
72157;BME280;60035;52.122;5.406;2023-07-31T00:24:43;101049.13;;;15.98;100.00
72157;BME280;60035;52.122;5.406;2023-07-31T00:27:10;101046.41;;;16.01;100.00
72157;BME280;60035;52.122;5.406;2023-07-31T00:29:36;101046.50;;;15.99;100.00
72157;BME280;60035;52.122;5.406;2023-07-31T00:32:03;101052.47;;;16.00;100.00
72157;BME280;60035;52.122;5.406;2023-07-31T00:34:30;101052.31;;;16.03;100.00
72157;BME280;60035;52.122;5.406;2023-07-31T00:36:56;101047.06;;;16.05;100.00
72157;BME280;60035;52.122;5.406;2023-07-31T00:39:23;101038.28;;;16.09;100.00
72157;BME280;60035;52.122;5.406;2023-07-31T00:41:49;101040.53;;;16.15;100.00
72157;BME280;60035;52.122;5.406;2023-07-31T00:44:16;101036.00;;;16.20;100.00
72157;BME280;60035;52.122;5.406;2023-07-31T00:46:42;101038.19;;;16.28;100.00
72157;BME280;60035;52.122;5.406;2023-07-31T00:49:10;101030.13;;;16.34;100.00
72157;BME280;60035;52.122;5.406;2023-07-31T00:51:37;101029.75;;;16.42;100.00
72157;BME280;60035;52.122;5.406;2023-07-31T00:54:03;101031.19;;;16.47;100.00
72157;BME280;60035;52.122;5.406;2023-07-31T00:56:30;101030.09;;;16.52;100.00
72157;BME280;60035;52.122;5.406;2023-07-31T00:58:57;101031.53;;;16.57;100.00
72157;BME280;60035;52.122;5.406;2023-07-31T01:01:24;101027.03;;;16.61;100.00
72157;BME280;60035;52.122;5.406;2023-07-31T01:03:51;101028.47;;;16.66;100.00
72157;BME280;60035;52.122;5.406;2023-07-31T01:11:53;101022.16;;;16.72;100.00
72157;BME280;60035;52.122;5.406;2023-07-31T01:14:19;101020.47;;;16.71;100.00
72157;BME280;60035;52.122;5.406;2023-07-31T01:16:46;101019.56;;;16.72;100.00
72157;BME280;60035;52.122;5.406;2023-07-31T01:19:15;101042.00;;;16.72;100.00
72157;BME280;60035;52.122;5.406;2023-07-31T01:27:44;101024.28;;;16.64;100.00
72157;BME280;60035;52.122;5.406;2023-07-31T01:30:16;101023.47;;;16.63;100.00
72157;BME280;60035;52.122;5.406;2023-07-31T01:32:47;101029.53;;;16.62;100.00
72157;BME280;60035;52.122;5.406;2023-07-31T01:35:14;101023.38;;;16.65;100.00
72157;BME280;60035;52.122;5.406;2023-07-31T01:37:41;101025.06;;;16.66;100.00
72157;BME280;60035;52.122;5.406;2023-07-31T01:40:08;101023.38;;;16.65;100.00
72157;BME280;60035;52.122;5.406;2023-07-31T01:42:34;101020.88;;;16.63;100.00
72157;BME280;60035;52.122;5.406;2023-07-31T01:45:01;101019.03;;;16.65;100.00
72157;BME280;60035;52.122;5.406;2023-07-31T01:47:28;101026.06;;;16.63;100.00
72157;BME280;60035;52.122;5.406;2023-07-31T01:49:54;101023.63;;;16.60;100.00
72157;BME280;60035;52.122;5.406;2023-07-31T01:52:21;101025.28;;;16.61;100.00
72157;BME280;60035;52.122;5.406;2023-07-31T01:54:47;101019.28;;;16.61;100.00
72157;BME280;60035;52.122;5.406;2023-07-31T01:57:14;101012.34;;;16.61;100.00
72157;BME280;60035;52.122;5.406;2023-07-31T01:59:40;101014.03;;;16.62;100.00
72157;BME280;60035;52.122;5.406;2023-07-31T02:02:07;101010.72;;;16.60;100.00
72157;BME280;60035;52.122;5.406;2023-07-31T02:04:34;101011.44;;;16.62;100.00
72157;BME280;60035;52.122;5.406;2023-07-31T02:07:00;101007.19;;;16.61;100.00
72157;BME280;60035;52.122;5.406;2023-07-31T02:09:30;101001.34;;;16.58;100.00
72157;BME280;60035;52.122;5.406;2023-07-31T02:11:56;100997.09;;;16.57;100.00
72157;BME280;60035;52.122;5.406;2023-07-31T02:14:23;100989.56;;;16.52;100.00
72157;BME280;60035;52.122;5.406;2023-07-31T02:16:49;100984.66;;;16.47;100.00
72157;BME280;60035;52.122;5.406;2023-07-31T02:19:17;100992.41;;;16.47;100.00
72157;BME280;60035;52.122;5.406;2023-07-31T02:21:43;100977.91;;;16.45;100.00
72157;BME280;60035;52.122;5.406;2023-07-31T02:24:10;100971.13;;;16.42;100.00
72157;BME280;60035;52.122;5.406;2023-07-31T02:26:36;100973.72;;;16.42;100.00
72157;BME280;60035;52.122;5.406;2023-07-31T02:29:04;100974.63;;;16.41;100.00
72157;BME280;60035;52.122;5.406;2023-07-31T02:31:30;100976.53;;;16.38;100.00
72157;BME280;60035;52.122;5.406;2023-07-31T02:33:57;100977.28;;;16.40;100.00
72157;BME280;60035;52.122;5.406;2023-07-31T02:36:23;100967.03;;;16.38;100.00
72157;BME280;60035;52.122;5.406;2023-07-31T02:38:50;100969.38;;;16.43;100.00
72157;BME280;60035;52.122;5.406;2023-07-31T02:41:16;100964.28;;;16.41;100.00
72157;BME280;60035;52.122;5.406;2023-07-31T02:43:43;100963.38;;;16.42;100.00
72157;BME280;60035;52.122;5.406;2023-07-31T02:46:09;100968.63;;;16.41;100.00
72157;BME280;60035;52.122;5.406;2023-07-31T02:48:38;100972.91;;;16.42;100.00
72157;BME280;60035;52.122;5.406;2023-07-31T02:51:04;100966.03;;;16.41;100.00
72157;BME280;60035;52.122;5.406;2023-07-31T02:53:31;100960.78;;;16.42;100.00
72157;BME280;60035;52.122;5.406;2023-07-31T02:55:57;100958.22;;;16.42;100.00
72157;BME280;60035;52.122;5.406;2023-07-31T02:58:24;100958.03;;;16.45;100.00
72157;BME280;60035;52.122;5.406;2023-07-31T03:00:51;100952.78;;;16.47;100.00
72157;BME280;60035;52.122;5.406;2023-07-31T03:03:17;100954.63;;;16.45;100.00
72157;BME280;60035;52.122;5.406;2023-07-31T03:05:44;100959.88;;;16.43;100.00
72157;BME280;60035;52.122;5.406;2023-07-31T03:08:10;100955.63;;;16.42;100.00
72157;BME280;60035;52.122;5.406;2023-07-31T03:10:37;100952.88;;;16.45;100.00
72157;BME280;60035;52.122;5.406;2023-07-31T03:13:03;100952.03;;;16.45;100.00
72157;BME280;60035;52.122;5.406;2023-07-31T03:15:30;100953.03;;;16.42;100.00
72157;BME280;60035;52.122;5.406;2023-07-31T03:17:56;100965.06;;;16.43;100.00
72157;BME280;60035;52.122;5.406;2023-07-31T03:20:23;100959.81;;;16.45;100.00
72157;BME280;60035;52.122;5.406;2023-07-31T03:22:50;100958.03;;;16.45;100.00
72157;BME280;60035;52.122;5.406;2023-07-31T03:25:16;100958.91;;;16.46;100.00
72157;BME280;60035;52.122;5.406;2023-07-31T03:27:43;100945.97;;;16.46;100.00
72157;BME280;60035;52.122;5.406;2023-07-31T03:30:10;100953.72;;;16.46;100.00
72157;BME280;60035;52.122;5.406;2023-07-31T03:32:36;100939.84;;;16.47;100.00
72157;BME280;60035;52.122;5.406;2023-07-31T03:35:03;100953.03;;;16.42;100.00
72157;BME280;60035;52.122;5.406;2023-07-31T03:37:31;100955.78;;;16.39;100.00
72157;BME280;60035;52.122;5.406;2023-07-31T03:39:58;100948.78;;;16.41;100.00
72157;BME280;60035;52.122;5.406;2023-07-31T03:42:25;100952.34;;;16.39;100.00
72157;BME280;60035;52.122;5.406;2023-07-31T03:44:51;100941.19;;;16.38;100.00
72157;BME280;60035;52.122;5.406;2023-07-31T03:47:18;100941.13;;;16.40;100.00
72157;BME280;60035;52.122;5.406;2023-07-31T03:49:44;100941.19;;;16.38;100.00
72157;BME280;60035;52.122;5.406;2023-07-31T03:52:11;100942.19;;;16.36;100.00
72157;BME280;60035;52.122;5.406;2023-07-31T03:54:37;100949.19;;;16.33;100.00
72157;BME280;60035;52.122;5.406;2023-07-31T03:57:04;100943.00;;;16.36;100.00
72157;BME280;60035;52.122;5.406;2023-07-31T03:59:30;100949.03;;;16.37;100.00
72157;BME280;60035;52.122;5.406;2023-07-31T04:01:57;100942.19;;;16.36;100.00
72157;BME280;60035;52.122;5.406;2023-07-31T04:04:23;100939.59;;;16.36;100.00
72157;BME280;60035;52.122;5.406;2023-07-31T04:06:50;100940.00;;;16.28;100.00
72157;BME280;60035;52.122;5.406;2023-07-31T04:09:17;100938.31;;;16.27;100.00
72157;BME280;60035;52.122;5.406;2023-07-31T04:11:43;100926.25;;;16.27;100.00
72157;BME280;60035;52.122;5.406;2023-07-31T04:14:10;100930.75;;;16.24;100.00
72157;BME280;60035;52.122;5.406;2023-07-31T04:16:36;100918.06;;;16.19;100.00
72157;BME280;60035;52.122;5.406;2023-07-31T04:19:05;100910.16;;;16.22;100.00
72157;BME280;60035;52.122;5.406;2023-07-31T04:21:31;100906.72;;;16.22;100.00
72157;BME280;60035;52.122;5.406;2023-07-31T04:23:58;100905.91;;;16.21;100.00
72157;BME280;60035;52.122;5.406;2023-07-31T04:26:24;100903.31;;;16.21;100.00
72157;BME280;60035;52.122;5.406;2023-07-31T04:28:52;100905.97;;;16.20;100.00
72157;BME280;60035;52.122;5.406;2023-07-31T04:31:18;100899.91;;;16.21;100.00
72157;BME280;60035;52.122;5.406;2023-07-31T04:33:45;100905.91;;;16.21;100.00
72157;BME280;60035;52.122;5.406;2023-07-31T04:36:11;100905.81;;;16.23;100.00
72157;BME280;60035;52.122;5.406;2023-07-31T04:38:38;100915.25;;;16.24;100.00
72157;BME280;60035;52.122;5.406;2023-07-31T04:41:05;100916.06;;;16.24;100.00
72157;BME280;60035;52.122;5.406;2023-07-31T04:43:32;100920.56;;;16.21;100.00
72157;BME280;60035;52.122;5.406;2023-07-31T04:45:58;100915.56;;;16.18;100.00
72157;BME280;60035;52.122;5.406;2023-07-31T04:48:25;100908.72;;;16.16;100.00
72157;BME280;60035;52.122;5.406;2023-07-31T04:50:51;100911.47;;;16.13;100.00
72157;BME280;60035;52.122;5.406;2023-07-31T04:53:18;100909.66;;;16.15;100.00
72157;BME280;60035;52.122;5.406;2023-07-31T04:55:45;100907.28;;;16.11;100.00
72157;BME280;60035;52.122;5.406;2023-07-31T04:58:11;100903.88;;;16.10;100.00
72157;BME280;60035;52.122;5.406;2023-07-31T05:00:38;100893.78;;;16.06;100.00
72157;BME280;60035;52.122;5.406;2023-07-31T05:03:05;100900.69;;;16.05;100.00
72157;BME280;60035;52.122;5.406;2023-07-31T05:05:31;100890.38;;;16.05;100.00
72157;BME280;60035;52.122;5.406;2023-07-31T05:07:58;100885.94;;;16.07;100.00
72157;BME280;60035;52.122;5.406;2023-07-31T05:10:24;100878.19;;;16.07;100.00
72157;BME280;60035;52.122;5.406;2023-07-31T05:12:51;100881.53;;;16.09;100.00
72157;BME280;60035;52.122;5.406;2023-07-31T05:15:17;100876.38;;;16.09;100.00
72157;BME280;60035;52.122;5.406;2023-07-31T05:17:45;100885.78;;;16.10;100.00
72157;BME280;60035;52.122;5.406;2023-07-31T05:20:12;100880.72;;;16.09;100.00
72157;BME280;60035;52.122;5.406;2023-07-31T05:22:39;100882.31;;;16.11;100.00
72157;BME280;60035;52.122;5.406;2023-07-31T05:25:05;100889.88;;;16.14;100.00
72157;BME280;60035;52.122;5.406;2023-07-31T05:27:32;100880.53;;;16.12;100.00
72157;BME280;60035;52.122;5.406;2023-07-31T05:29:59;100867.72;;;16.10;100.00
72157;BME280;60035;52.122;5.406;2023-07-31T05:32:25;100871.28;;;16.08;100.00
72157;BME280;60035;52.122;5.406;2023-07-31T05:34:52;100867.13;;;16.05;100.00
72157;BME280;60035;52.122;5.406;2023-07-31T05:37:19;100857.69;;;16.04;100.00
72157;BME280;60035;52.122;5.406;2023-07-31T05:39:48;100859.53;;;16.02;100.00
72157;BME280;60035;52.122;5.406;2023-07-31T05:42:15;100857.88;;;16.01;100.00
72157;BME280;60035;52.122;5.406;2023-07-31T05:44:41;100863.13;;;15.99;100.00
72157;BME280;60035;52.122;5.406;2023-07-31T05:47:08;100849.25;;;16.01;100.00
72157;BME280;60035;52.122;5.406;2023-07-31T05:49:34;100851.09;;;15.98;100.00
72157;BME280;60035;52.122;5.406;2023-07-31T05:52:01;100847.66;;;15.98;100.00
72157;BME280;60035;52.122;5.406;2023-07-31T05:54:27;100843.34;;;15.98;100.00
72157;BME280;60035;52.122;5.406;2023-07-31T05:56:54;100838.28;;;15.97;100.00
72157;BME280;60035;52.122;5.406;2023-07-31T05:59:20;100842.38;;;16.01;100.00
72157;BME280;60035;52.122;5.406;2023-07-31T06:01:47;100837.19;;;16.01;100.00
72157;BME280;60035;52.122;5.406;2023-07-31T06:04:13;100831.03;;;16.04;100.00
72157;BME280;60035;52.122;5.406;2023-07-31T06:06:40;100828.28;;;16.07;100.00
72157;BME280;60035;52.122;5.406;2023-07-31T06:09:07;100828.38;;;16.05;100.00
72157;BME280;60035;52.122;5.406;2023-07-31T06:11:34;100833.53;;;16.05;100.00
72157;BME280;60035;52.122;5.406;2023-07-31T06:14:03;100832.63;;;16.06;100.00
72157;BME280;60035;52.122;5.406;2023-07-31T06:16:29;100829.19;;;16.06;100.00
72157;BME280;60035;52.122;5.406;2023-07-31T06:18:56;100822.22;;;16.08;100.00
72157;BME280;60035;52.122;5.406;2023-07-31T06:21:22;100821.44;;;16.06;100.00
72157;BME280;60035;52.122;5.406;2023-07-31T06:23:49;100824.78;;;16.08;100.00
72157;BME280;60035;52.122;5.406;2023-07-31T06:26:15;100823.88;;;16.09;100.00
72157;BME280;60035;52.122;5.406;2023-07-31T06:28:42;100819.47;;;16.11;100.00
72157;BME280;60035;52.122;5.406;2023-07-31T06:31:09;100815.06;;;16.13;100.00
72157;BME280;60035;52.122;5.406;2023-07-31T06:33:36;100814.13;;;16.14;100.00
72157;BME280;60035;52.122;5.406;2023-07-31T06:36:02;100818.22;;;16.18;100.00
72157;BME280;60035;52.122;5.406;2023-07-31T06:38:29;100808.53;;;16.22;100.00
72157;BME280;60035;52.122;5.406;2023-07-31T06:40:56;100806.72;;;16.24;100.00
72157;BME280;60035;52.122;5.406;2023-07-31T06:43:22;100803.97;;;16.27;100.00
72157;BME280;60035;52.122;5.406;2023-07-31T06:45:49;100791.81;;;16.29;100.00
72157;BME280;60035;52.122;5.406;2023-07-31T06:48:17;100793.22;;;16.35;100.00
72157;BME280;60035;52.122;5.406;2023-07-31T06:50:44;100789.53;;;16.39;100.00
72157;BME280;60035;52.122;5.406;2023-07-31T06:53:10;100784.22;;;16.42;100.00
72157;BME280;60035;52.122;5.406;2023-07-31T06:55:37;100785.88;;;16.43;100.00
72157;BME280;60035;52.122;5.406;2023-07-31T06:58:04;100779.88;;;16.42;100.00
72157;BME280;60035;52.122;5.406;2023-07-31T07:00:30;100795.13;;;16.47;100.00
72157;BME280;60035;52.122;5.406;2023-07-31T07:02:57;100772.53;;;16.51;100.00
72157;BME280;60035;52.122;5.406;2023-07-31T07:05:23;100785.22;;;16.55;100.00
72157;BME280;60035;52.122;5.406;2023-07-31T07:07:50;100781.69;;;16.56;100.00
72157;BME280;60035;52.122;5.406;2023-07-31T07:10:18;100766.94;;;16.58;100.00
72157;BME280;60035;52.122;5.406;2023-07-31T07:12:45;100780.69;;;16.59;100.00
72157;BME280;60035;52.122;5.406;2023-07-31T07:15:12;100771.88;;;16.63;100.00
72157;BME280;60035;52.122;5.406;2023-07-31T07:17:39;100776.84;;;16.66;100.00
72157;BME280;60035;52.122;5.406;2023-07-31T07:20:06;100768.00;;;16.70;100.00
72157;BME280;60035;52.122;5.406;2023-07-31T07:22:34;100779.09;;;16.72;100.00
72157;BME280;60035;52.122;5.406;2023-07-31T07:25:00;100765.22;;;16.73;100.00
72157;BME280;60035;52.122;5.406;2023-07-31T07:27:27;100774.66;;;16.74;100.00
72157;BME280;60035;52.122;5.406;2023-07-31T07:29:53;100772.81;;;16.76;100.00
72157;BME280;60035;52.122;5.406;2023-07-31T07:32:20;100775.31;;;16.78;100.00
72157;BME280;60035;52.122;5.406;2023-07-31T07:34:48;100769.16;;;16.80;100.00
72157;BME280;60035;52.122;5.406;2023-07-31T07:37:15;100769.78;;;16.84;100.00
72157;BME280;60035;52.122;5.406;2023-07-31T07:39:42;100764.59;;;16.84;100.00
72157;BME280;60035;52.122;5.406;2023-07-31T07:42:08;100774.13;;;16.83;100.00
72157;BME280;60035;52.122;5.406;2023-07-31T07:44:35;100763.59;;;16.87;100.00
72157;BME280;60035;52.122;5.406;2023-07-31T07:47:01;100765.16;;;16.91;100.00
72157;BME280;60035;52.122;5.406;2023-07-31T07:49:28;100756.44;;;16.92;100.00
72157;BME280;60035;52.122;5.406;2023-07-31T07:51:55;100770.31;;;16.91;100.00
72157;BME280;60035;52.122;5.406;2023-07-31T07:54:21;100766.06;;;16.90;100.00
72157;BME280;60035;52.122;5.406;2023-07-31T07:56:48;100756.44;;;16.92;100.00
72157;BME280;60035;52.122;5.406;2023-07-31T07:59:15;100753.63;;;16.96;100.00
72157;BME280;60035;52.122;5.406;2023-07-31T08:01:42;100757.59;;;17.02;100.00
72157;BME280;60035;52.122;5.406;2023-07-31T08:04:09;100755.75;;;17.04;100.00
72157;BME280;60035;52.122;5.406;2023-07-31T08:06:35;100753.16;;;17.04;100.00
72157;BME280;60035;52.122;5.406;2023-07-31T08:09:02;100751.22;;;17.08;100.00
72157;BME280;60035;52.122;5.406;2023-07-31T08:11:32;100743.91;;;17.14;100.00
72157;BME280;60035;52.122;5.406;2023-07-31T08:13:59;100751.44;;;17.19;100.00
72157;BME280;60035;52.122;5.406;2023-07-31T08:16:26;100749.66;;;17.20;100.00
72157;BME280;60035;52.122;5.406;2023-07-31T08:18:52;100737.38;;;17.23;100.00
72157;BME280;60035;52.122;5.406;2023-07-31T08:21:19;100742.47;;;17.25;100.00
72157;BME280;60035;52.122;5.406;2023-07-31T08:23:46;100730.75;;;17.34;100.00
72157;BME280;60035;52.122;5.406;2023-07-31T08:26:16;100731.00;;;17.43;100.00
72157;BME280;60035;52.122;5.406;2023-07-31T08:28:43;100737.31;;;17.54;100.00
72157;BME280;60035;52.122;5.406;2023-07-31T08:31:10;100731.75;;;17.60;100.00
72157;BME280;60035;52.122;5.406;2023-07-31T08:33:38;100729.72;;;17.65;100.00
72157;BME280;60035;52.122;5.406;2023-07-31T08:36:05;100727.03;;;17.67;100.00
72157;BME280;60035;52.122;5.406;2023-07-31T08:38:32;100726.13;;;17.68;100.00
72157;BME280;60035;52.122;5.406;2023-07-31T08:41:05;100724.16;;;17.71;100.00
72157;BME280;60035;52.122;5.406;2023-07-31T08:43:32;100734.34;;;17.74;100.00
72157;BME280;60035;52.122;5.406;2023-07-31T08:45:59;100728.41;;;17.87;100.00
72157;BME280;60035;52.122;5.406;2023-07-31T08:48:28;100723.88;;;17.90;100.00
72157;BME280;60035;52.122;5.406;2023-07-31T08:50:55;100721.44;;;17.87;100.00
72157;BME280;60035;52.122;5.406;2023-07-31T08:53:21;100730.16;;;17.86;100.00
72157;BME280;60035;52.122;5.406;2023-07-31T08:55:48;100717.84;;;17.90;100.00
72157;BME280;60035;52.122;5.406;2023-07-31T08:58:17;100722.28;;;17.88;100.00
72157;BME280;60035;52.122;5.406;2023-07-31T09:00:46;100722.28;;;17.88;100.00
72157;BME280;60035;52.122;5.406;2023-07-31T09:03:17;100719.50;;;17.91;100.00
72157;BME280;60035;52.122;5.406;2023-07-31T09:05:46;100729.16;;;17.89;100.00
72157;BME280;60035;52.122;5.406;2023-07-31T09:08:14;100730.72;;;17.91;100.00
72157;BME280;60035;52.122;5.406;2023-07-31T09:10:42;100729.41;;;17.98;100.00
72157;BME280;60035;52.122;5.406;2023-07-31T09:13:09;100738.75;;;18.01;100.00
72157;BME280;60035;52.122;5.406;2023-07-31T09:15:39;100723.88;;;18.05;100.00
72157;BME280;60035;52.122;5.406;2023-07-31T09:18:07;100729.03;;;18.05;100.00
72157;BME280;60035;52.122;5.406;2023-07-31T09:20:34;100724.69;;;18.05;100.00
72157;BME280;60035;52.122;5.406;2023-07-31T09:23:11;100713.56;;;18.03;100.00
72157;BME280;60035;52.122;5.406;2023-07-31T09:25:38;100706.84;;;18.01;100.00
72157;BME280;60035;52.122;5.406;2023-07-31T09:28:06;100717.38;;;17.97;100.00
72157;BME280;60035;52.122;5.406;2023-07-31T09:30:49;100716.47;;;17.98;100.00
72157;BME280;60035;52.122;5.406;2023-07-31T09:33:16;100717.28;;;17.99;100.00
72157;BME280;60035;52.122;5.406;2023-07-31T09:35:43;100715.44;;;18.01;100.00
72157;BME280;60035;52.122;5.406;2023-07-31T09:38:12;100707.47;;;18.04;100.00
72157;BME280;60035;52.122;5.406;2023-07-31T09:40:44;100703.13;;;18.05;100.00
72157;BME280;60035;52.122;5.406;2023-07-31T09:43:13;100702.13;;;18.20;100.00
72157;BME280;60035;52.122;5.406;2023-07-31T09:45:42;100712.94;;;18.27;100.00
72157;BME280;60035;52.122;5.406;2023-07-31T09:48:13;100700.94;;;18.39;100.00
72157;BME280;60035;52.122;5.406;2023-07-31T09:50:44;100703.69;;;18.50;100.00
72157;BME280;60035;52.122;5.406;2023-07-31T09:53:11;100703.91;;;18.60;100.00
72157;BME280;60035;52.122;5.406;2023-07-31T09:55:39;100705.19;;;18.67;100.00
72157;BME280;60035;52.122;5.406;2023-07-31T09:58:08;100704.25;;;18.68;100.00
72157;BME280;60035;52.122;5.406;2023-07-31T10:00:35;100708.16;;;18.61;100.00
72157;BME280;60035;52.122;5.406;2023-07-31T10:03:09;100707.75;;;18.54;100.00
72157;BME280;60035;52.122;5.406;2023-07-31T10:05:44;100705.38;;;18.51;100.00
72157;BME280;60035;52.122;5.406;2023-07-31T10:08:14;100693.53;;;18.60;100.00
72157;BME280;60035;52.122;5.406;2023-07-31T10:10:43;100695.94;;;18.63;100.00
72157;BME280;60035;52.122;5.406;2023-07-31T10:13:11;100699.97;;;18.54;100.00
72157;BME280;60035;52.122;5.406;2023-07-31T10:15:38;100691.31;;;18.41;100.00
72157;BME280;60035;52.122;5.406;2023-07-31T10:18:06;100697.75;;;18.35;100.00
72157;BME280;60035;52.122;5.406;2023-07-31T10:20:33;100699.38;;;18.36;100.00
72157;BME280;60035;52.122;5.406;2023-07-31T10:23:00;100708.13;;;18.48;100.00
72157;BME280;60035;52.122;5.406;2023-07-31T10:25:27;100709.09;;;18.47;100.00
72157;BME280;60035;52.122;5.406;2023-07-31T10:27:54;100701.22;;;18.48;100.00
72157;BME280;60035;52.122;5.406;2023-07-31T10:30:24;100699.63;;;18.46;100.00
72157;BME280;60035;52.122;5.406;2023-07-31T10:32:52;100703.66;;;18.37;100.00
72157;BME280;60035;52.122;5.406;2023-07-31T10:35:20;100706.44;;;18.34;100.00
72157;BME280;60035;52.122;5.406;2023-07-31T10:37:48;100700.66;;;18.43;100.00
72157;BME280;60035;52.122;5.406;2023-07-31T10:40:22;100703.38;;;18.55;100.00
72157;BME280;60035;52.122;5.406;2023-07-31T10:42:56;100704.66;;;18.62;100.00
72157;BME280;60035;52.122;5.406;2023-07-31T10:45:30;100701.56;;;18.70;100.00
72157;BME280;60035;52.122;5.406;2023-07-31T10:48:01;100699.28;;;18.78;100.00
72157;BME280;60035;52.122;5.406;2023-07-31T10:50:30;100700.84;;;18.80;100.00
72157;BME280;60035;52.122;5.406;2023-07-31T10:52:59;100699.69;;;18.85;100.00
72157;BME280;60035;52.122;5.406;2023-07-31T10:55:39;100705.81;;;18.84;100.00
72157;BME280;60035;52.122;5.406;2023-07-31T10:58:11;100698.59;;;18.89;100.00
72157;BME280;60035;52.122;5.406;2023-07-31T11:00:40;100701.47;;;18.84;100.00
72157;BME280;60035;52.122;5.406;2023-07-31T11:03:15;100703.53;;;18.79;100.00
72157;BME280;60035;52.122;5.406;2023-07-31T11:05:44;100703.78;;;18.89;100.00
72157;BME280;60035;52.122;5.406;2023-07-31T11:08:15;100703.91;;;19.00;100.00
72157;BME280;60035;52.122;5.406;2023-07-31T11:10:43;100700.28;;;19.03;100.00
72157;BME280;60035;52.122;5.406;2023-07-31T11:13:10;100700.38;;;19.01;100.00
72157;BME280;60035;52.122;5.406;2023-07-31T11:15:37;100704.63;;;19.02;100.00
72157;BME280;60035;52.122;5.406;2023-07-31T11:18:04;100702.34;;;18.97;100.00
72157;BME280;60035;52.122;5.406;2023-07-31T11:20:32;100698.28;;;18.93;100.00
72157;BME280;60035;52.122;5.406;2023-07-31T11:23:05;100689.38;;;18.97;100.00
72157;BME280;60035;52.122;5.406;2023-07-31T11:25:32;100697.44;;;18.93;100.00
72157;BME280;60035;52.122;5.406;2023-07-31T11:28:07;100697.00;;;18.86;100.00
72157;BME280;60035;52.122;5.406;2023-07-31T11:30:34;100693.56;;;18.73;100.00
72157;BME280;60035;52.122;5.406;2023-07-31T11:33:03;100693.34;;;18.76;100.00
72157;BME280;60035;52.122;5.406;2023-07-31T11:35:34;100695.44;;;18.71;100.00
72157;BME280;60035;52.122;5.406;2023-07-31T11:38:02;100690.53;;;18.66;100.00
72157;BME280;60035;52.122;5.406;2023-07-31T11:40:28;100697.41;;;18.67;100.00
72157;BME280;60035;52.122;5.406;2023-07-31T11:42:59;100691.56;;;18.63;100.00
72157;BME280;60035;52.122;5.406;2023-07-31T11:45:30;100696.38;;;18.70;100.00
72157;BME280;60035;52.122;5.406;2023-07-31T11:47:57;100689.91;;;18.62;100.00
72157;BME280;60035;52.122;5.406;2023-07-31T11:50:24;100690.94;;;18.60;100.00
72157;BME280;60035;52.122;5.406;2023-07-31T11:52:57;100683.09;;;18.61;100.00
72157;BME280;60035;52.122;5.406;2023-07-31T11:55:26;100687.94;;;18.66;100.00
72157;BME280;60035;52.122;5.406;2023-07-31T11:57:54;100680.56;;;18.60;100.00
72157;BME280;60035;52.122;5.406;2023-07-31T12:00:21;100679.53;;;18.62;100.00
72157;BME280;60035;52.122;5.406;2023-07-31T12:02:48;100682.03;;;18.64;100.00
72157;BME280;60035;52.122;5.406;2023-07-31T12:05:15;100690.00;;;18.61;100.00
72157;BME280;60035;52.122;5.406;2023-07-31T12:07:48;100692.22;;;18.67;100.00
72157;BME280;60035;52.122;5.406;2023-07-31T12:10:29;100682.97;;;18.76;100.00
72157;BME280;60035;52.122;5.406;2023-07-31T12:13:07;100691.09;;;18.84;100.00
72157;BME280;60035;52.122;5.406;2023-07-31T12:15:41;100692.84;;;18.84;100.00
72157;BME280;60035;52.122;5.406;2023-07-31T12:18:14;100688.94;;;18.91;100.00
72157;BME280;60035;52.122;5.406;2023-07-31T12:20:49;100687.59;;;18.98;100.00
72157;BME280;60035;52.122;5.406;2023-07-31T12:23:21;100682.28;;;19.00;100.00
72157;BME280;60035;52.122;5.406;2023-07-31T12:28:35;100669.72;;;19.06;100.00
72157;BME280;60035;52.122;5.406;2023-07-31T12:31:02;100675.31;;;19.13;100.00
72157;BME280;60035;52.122;5.406;2023-07-31T12:33:34;100659.44;;;19.18;100.00
72157;BME280;60035;52.122;5.406;2023-07-31T12:36:06;100654.03;;;19.21;100.00
72157;BME280;60035;52.122;5.406;2023-07-31T12:38:34;100651.56;;;19.19;100.00
72157;BME280;60035;52.122;5.406;2023-07-31T12:41:00;100653.13;;;19.09;100.00
72157;BME280;60035;52.122;5.406;2023-07-31T12:43:27;100647.63;;;19.13;100.00
72157;BME280;60035;52.122;5.406;2023-07-31T12:45:54;100660.28;;;19.18;100.00
72157;BME280;60035;52.122;5.406;2023-07-31T12:48:22;100653.75;;;19.25;100.00
72157;BME280;60035;52.122;5.406;2023-07-31T12:50:49;100656.34;;;19.25;100.00
72157;BME280;60035;52.122;5.406;2023-07-31T12:53:15;100655.09;;;19.18;100.00
72157;BME280;60035;52.122;5.406;2023-07-31T12:55:42;100656.22;;;19.14;100.00